sensor_id;sensor_type;location;lat;lon;timestamp;P1;durP1;ratioP1;P2;durP2;ratioP2
9106;SDS011;4589;48.690;8.952;2024-01-15T00:01:55;31.33;;;9.50;;
9106;SDS011;4589;48.690;8.952;2024-01-15T00:04:21;20.43;;;9.23;;
9106;SDS011;4589;48.690;8.952;2024-01-15T00:06:47;27.77;;;10.50;;
9106;SDS011;4589;48.690;8.952;2024-01-15T00:09:12;22.13;;;9.50;;
9106;SDS011;4589;48.690;8.952;2024-01-15T00:11:38;27.93;;;10.57;;
9106;SDS011;4589;48.690;8.952;2024-01-15T00:14:03;20.20;;;8.73;;
9106;SDS011;4589;48.690;8.952;2024-01-15T00:16:29;21.07;;;9.10;;
9106;SDS011;4589;48.690;8.952;2024-01-15T00:18:55;25.70;;;11.50;;
9106;SDS011;4589;48.690;8.952;2024-01-15T00:21:20;28.23;;;9.97;;
9106;SDS011;4589;48.690;8.952;2024-01-15T00:23:46;24.70;;;10.93;;
9106;SDS011;4589;48.690;8.952;2024-01-15T00:26:12;28.67;;;11.40;;
9106;SDS011;4589;48.690;8.952;2024-01-15T00:28:38;26.67;;;10.20;;
9106;SDS011;4589;48.690;8.952;2024-01-15T00:31:04;21.47;;;9.87;;
9106;SDS011;4589;48.690;8.952;2024-01-15T00:33:30;24.67;;;11.27;;
9106;SDS011;4589;48.690;8.952;2024-01-15T00:35:56;25.57;;;11.07;;
9106;SDS011;4589;48.690;8.952;2024-01-15T00:38:21;34.37;;;11.70;;
9106;SDS011;4589;48.690;8.952;2024-01-15T00:40:47;23.60;;;10.83;;
9106;SDS011;4589;48.690;8.952;2024-01-15T00:43:12;30.03;;;12.37;;
9106;SDS011;4589;48.690;8.952;2024-01-15T00:45:38;35.17;;;11.37;;
9106;SDS011;4589;48.690;8.952;2024-01-15T00:48:04;33.07;;;11.60;;
9106;SDS011;4589;48.690;8.952;2024-01-15T00:50:30;31.38;;;11.38;;
9106;SDS011;4589;48.690;8.952;2024-01-15T00:52:55;38.97;;;11.30;;
9106;SDS011;4589;48.690;8.952;2024-01-15T00:55:21;35.00;;;12.40;;
9106;SDS011;4589;48.690;8.952;2024-01-15T00:57:47;37.07;;;11.97;;
9106;SDS011;4589;48.690;8.952;2024-01-15T01:00:13;40.47;;;10.80;;
9106;SDS011;4589;48.690;8.952;2024-01-15T01:02:39;36.58;;;13.10;;
9106;SDS011;4589;48.690;8.952;2024-01-15T01:05:05;35.10;;;11.60;;
9106;SDS011;4589;48.690;8.952;2024-01-15T01:07:31;29.03;;;10.67;;
9106;SDS011;4589;48.690;8.952;2024-01-15T01:09:57;27.47;;;10.13;;
9106;SDS011;4589;48.690;8.952;2024-01-15T01:12:22;34.13;;;12.10;;
9106;SDS011;4589;48.690;8.952;2024-01-15T01:14:48;43.80;;;11.97;;
9106;SDS011;4589;48.690;8.952;2024-01-15T01:17:13;30.80;;;10.30;;
9106;SDS011;4589;48.690;8.952;2024-01-15T01:19:39;32.23;;;11.07;;
9106;SDS011;4589;48.690;8.952;2024-01-15T01:22:05;34.50;;;11.80;;
9106;SDS011;4589;48.690;8.952;2024-01-15T01:24:30;32.53;;;11.23;;
9106;SDS011;4589;48.690;8.952;2024-01-15T01:26:56;30.50;;;11.87;;
9106;SDS011;4589;48.690;8.952;2024-01-15T01:29:21;30.03;;;12.23;;
9106;SDS011;4589;48.690;8.952;2024-01-15T01:31:48;32.22;;;11.63;;
9106;SDS011;4589;48.690;8.952;2024-01-15T01:34:14;30.07;;;12.13;;
9106;SDS011;4589;48.690;8.952;2024-01-15T01:36:41;33.58;;;12.10;;
9106;SDS011;4589;48.690;8.952;2024-01-15T01:39:07;28.30;;;11.60;;
9106;SDS011;4589;48.690;8.952;2024-01-15T01:41:32;38.97;;;12.57;;
9106;SDS011;4589;48.690;8.952;2024-01-15T01:43:58;38.03;;;12.17;;
9106;SDS011;4589;48.690;8.952;2024-01-15T01:46:24;34.27;;;11.80;;
9106;SDS011;4589;48.690;8.952;2024-01-15T01:48:51;37.40;;;12.98;;
9106;SDS011;4589;48.690;8.952;2024-01-15T01:51:18;32.15;;;11.18;;
9106;SDS011;4589;48.690;8.952;2024-01-15T01:53:45;28.60;;;11.85;;
9106;SDS011;4589;48.690;8.952;2024-01-15T01:56:11;32.17;;;10.50;;
9106;SDS011;4589;48.690;8.952;2024-01-15T01:58:38;30.85;;;12.23;;
9106;SDS011;4589;48.690;8.952;2024-01-15T02:01:04;25.67;;;9.73;;
9106;SDS011;4589;48.690;8.952;2024-01-15T02:03:31;34.83;;;12.35;;
9106;SDS011;4589;48.690;8.952;2024-01-15T02:05:57;32.93;;;12.60;;
9106;SDS011;4589;48.690;8.952;2024-01-15T02:08:23;42.43;;;12.60;;
9106;SDS011;4589;48.690;8.952;2024-01-15T02:10:49;29.70;;;12.00;;
9106;SDS011;4589;48.690;8.952;2024-01-15T02:13:15;27.67;;;10.73;;
9106;SDS011;4589;48.690;8.952;2024-01-15T02:15:40;34.50;;;12.53;;
9106;SDS011;4589;48.690;8.952;2024-01-15T02:18:06;33.07;;;13.27;;
9106;SDS011;4589;48.690;8.952;2024-01-15T02:20:35;37.72;;;11.57;;
9106;SDS011;4589;48.690;8.952;2024-01-15T02:23:04;28.85;;;12.60;;
9106;SDS011;4589;48.690;8.952;2024-01-15T02:25:39;39.63;;;12.25;;
9106;SDS011;4589;48.690;8.952;2024-01-15T02:28:06;31.20;;;12.50;;
9106;SDS011;4589;48.690;8.952;2024-01-15T02:30:34;34.30;;;13.25;;
9106;SDS011;4589;48.690;8.952;2024-01-15T02:33:05;44.15;;;13.43;;
9106;SDS011;4589;48.690;8.952;2024-01-15T02:35:35;30.73;;;11.02;;
9106;SDS011;4589;48.690;8.952;2024-01-15T02:38:07;27.80;;;11.65;;
9106;SDS011;4589;48.690;8.952;2024-01-15T02:40:33;42.92;;;14.40;;
9106;SDS011;4589;48.690;8.952;2024-01-15T02:42:59;25.10;;;11.18;;
9106;SDS011;4589;48.690;8.952;2024-01-15T02:45:25;43.50;;;13.13;;
9106;SDS011;4589;48.690;8.952;2024-01-15T02:47:52;47.22;;;13.18;;
9106;SDS011;4589;48.690;8.952;2024-01-15T02:50:18;28.73;;;12.10;;
9106;SDS011;4589;48.690;8.952;2024-01-15T02:52:43;33.47;;;13.10;;
9106;SDS011;4589;48.690;8.952;2024-01-15T02:55:09;40.60;;;13.37;;
9106;SDS011;4589;48.690;8.952;2024-01-15T02:57:35;27.47;;;12.27;;
9106;SDS011;4589;48.690;8.952;2024-01-15T03:00:01;35.30;;;13.17;;
9106;SDS011;4589;48.690;8.952;2024-01-15T03:02:28;25.70;;;11.38;;
9106;SDS011;4589;48.690;8.952;2024-01-15T03:04:54;32.67;;;12.10;;
9106;SDS011;4589;48.690;8.952;2024-01-15T03:07:19;26.23;;;11.87;;
9106;SDS011;4589;48.690;8.952;2024-01-15T03:09:45;36.37;;;13.97;;
9106;SDS011;4589;48.690;8.952;2024-01-15T03:12:11;31.50;;;11.23;;
9106;SDS011;4589;48.690;8.952;2024-01-15T03:14:37;38.23;;;13.00;;
9106;SDS011;4589;48.690;8.952;2024-01-15T03:17:02;37.87;;;11.23;;
9106;SDS011;4589;48.690;8.952;2024-01-15T03:19:28;25.23;;;10.73;;
9106;SDS011;4589;48.690;8.952;2024-01-15T03:21:55;26.13;;;10.65;;
9106;SDS011;4589;48.690;8.952;2024-01-15T03:24:21;27.93;;;10.70;;
9106;SDS011;4589;48.690;8.952;2024-01-15T03:26:47;23.60;;;10.07;;
9106;SDS011;4589;48.690;8.952;2024-01-15T03:29:18;23.63;;;9.80;;
9106;SDS011;4589;48.690;8.952;2024-01-15T03:31:43;26.55;;;10.23;;
9106;SDS011;4589;48.690;8.952;2024-01-15T03:34:09;33.73;;;9.60;;
9106;SDS011;4589;48.690;8.952;2024-01-15T03:36:34;24.87;;;10.90;;
9106;SDS011;4589;48.690;8.952;2024-01-15T03:39:00;24.30;;;7.85;;
9106;SDS011;4589;48.690;8.952;2024-01-15T03:41:26;20.30;;;8.97;;
9106;SDS011;4589;48.690;8.952;2024-01-15T03:43:51;21.87;;;9.40;;
9106;SDS011;4589;48.690;8.952;2024-01-15T03:46:17;21.60;;;8.00;;
9106;SDS011;4589;48.690;8.952;2024-01-15T03:48:43;26.37;;;10.60;;
9106;SDS011;4589;48.690;8.952;2024-01-15T03:51:08;28.40;;;9.97;;
9106;SDS011;4589;48.690;8.952;2024-01-15T03:53:34;20.60;;;8.80;;
9106;SDS011;4589;48.690;8.952;2024-01-15T03:55:59;28.73;;;11.73;;
9106;SDS011;4589;48.690;8.952;2024-01-15T03:58:25;32.73;;;12.17;;
9106;SDS011;4589;48.690;8.952;2024-01-15T04:00:51;28.27;;;9.47;;
9106;SDS011;4589;48.690;8.952;2024-01-15T04:03:17;21.17;;;9.73;;
9106;SDS011;4589;48.690;8.952;2024-01-15T04:05:43;27.00;;;9.97;;
9106;SDS011;4589;48.690;8.952;2024-01-15T04:08:08;19.80;;;8.37;;
9106;SDS011;4589;48.690;8.952;2024-01-15T04:10:34;27.50;;;10.93;;
9106;SDS011;4589;48.690;8.952;2024-01-15T04:13:00;25.60;;;10.75;;
9106;SDS011;4589;48.690;8.952;2024-01-15T04:15:26;32.17;;;11.13;;
9106;SDS011;4589;48.690;8.952;2024-01-15T04:17:52;25.70;;;11.47;;
9106;SDS011;4589;48.690;8.952;2024-01-15T04:20:18;23.67;;;10.70;;
9106;SDS011;4589;48.690;8.952;2024-01-15T04:22:44;27.50;;;10.90;;
9106;SDS011;4589;48.690;8.952;2024-01-15T04:25:10;25.50;;;11.33;;
9106;SDS011;4589;48.690;8.952;2024-01-15T04:27:35;26.33;;;11.73;;
9106;SDS011;4589;48.690;8.952;2024-01-15T04:30:01;35.63;;;12.77;;
9106;SDS011;4589;48.690;8.952;2024-01-15T04:32:27;28.23;;;12.05;;
9106;SDS011;4589;48.690;8.952;2024-01-15T04:34:53;27.00;;;10.60;;
9106;SDS011;4589;48.690;8.952;2024-01-15T04:37:18;33.60;;;13.27;;
9106;SDS011;4589;48.690;8.952;2024-01-15T04:39:44;37.40;;;12.60;;
9106;SDS011;4589;48.690;8.952;2024-01-15T04:42:10;27.77;;;12.70;;
9106;SDS011;4589;48.690;8.952;2024-01-15T04:44:36;34.53;;;13.23;;
9106;SDS011;4589;48.690;8.952;2024-01-15T04:47:02;30.80;;;10.97;;
9106;SDS011;4589;48.690;8.952;2024-01-15T04:49:28;23.38;;;10.75;;
9106;SDS011;4589;48.690;8.952;2024-01-15T04:51:54;31.00;;;11.93;;
9106;SDS011;4589;48.690;8.952;2024-01-15T04:54:20;29.20;;;11.20;;
9106;SDS011;4589;48.690;8.952;2024-01-15T04:56:46;29.60;;;10.30;;
9106;SDS011;4589;48.690;8.952;2024-01-15T04:59:13;20.30;;;9.98;;
9106;SDS011;4589;48.690;8.952;2024-01-15T05:01:39;33.05;;;12.05;;
9106;SDS011;4589;48.690;8.952;2024-01-15T05:04:05;21.43;;;10.27;;
9106;SDS011;4589;48.690;8.952;2024-01-15T05:06:30;27.23;;;11.83;;
9106;SDS011;4589;48.690;8.952;2024-01-15T05:08:56;28.77;;;11.20;;
9106;SDS011;4589;48.690;8.952;2024-01-15T05:11:22;28.30;;;10.33;;
9106;SDS011;4589;48.690;8.952;2024-01-15T05:13:48;28.73;;;12.00;;
9106;SDS011;4589;48.690;8.952;2024-01-15T05:16:13;26.67;;;11.47;;
9106;SDS011;4589;48.690;8.952;2024-01-15T05:18:39;29.30;;;11.57;;
9106;SDS011;4589;48.690;8.952;2024-01-15T05:21:05;30.17;;;11.50;;
9106;SDS011;4589;48.690;8.952;2024-01-15T05:23:31;30.73;;;12.13;;
9106;SDS011;4589;48.690;8.952;2024-01-15T05:25:56;24.67;;;10.90;;
9106;SDS011;4589;48.690;8.952;2024-01-15T05:28:22;31.43;;;12.70;;
9106;SDS011;4589;48.690;8.952;2024-01-15T05:30:48;22.47;;;9.90;;
9106;SDS011;4589;48.690;8.952;2024-01-15T05:33:15;35.17;;;12.98;;
9106;SDS011;4589;48.690;8.952;2024-01-15T05:35:41;31.17;;;11.73;;
9106;SDS011;4589;48.690;8.952;2024-01-15T05:38:06;37.00;;;13.10;;
9106;SDS011;4589;48.690;8.952;2024-01-15T05:40:32;33.10;;;14.23;;
9106;SDS011;4589;48.690;8.952;2024-01-15T05:42:57;31.03;;;12.57;;
9106;SDS011;4589;48.690;8.952;2024-01-15T05:45:23;27.80;;;10.20;;
9106;SDS011;4589;48.690;8.952;2024-01-15T05:47:50;32.22;;;12.43;;
9106;SDS011;4589;48.690;8.952;2024-01-15T05:50:16;30.23;;;12.43;;
9106;SDS011;4589;48.690;8.952;2024-01-15T05:52:42;25.27;;;11.40;;
9106;SDS011;4589;48.690;8.952;2024-01-15T05:55:07;27.27;;;12.17;;
9106;SDS011;4589;48.690;8.952;2024-01-15T05:57:33;27.80;;;11.97;;
9106;SDS011;4589;48.690;8.952;2024-01-15T05:59:58;30.93;;;11.50;;
9106;SDS011;4589;48.690;8.952;2024-01-15T06:02:24;29.77;;;11.55;;
9106;SDS011;4589;48.690;8.952;2024-01-15T06:04:50;26.37;;;11.97;;
9106;SDS011;4589;48.690;8.952;2024-01-15T06:07:15;21.13;;;10.67;;
9106;SDS011;4589;48.690;8.952;2024-01-15T06:09:41;29.17;;;12.77;;
9106;SDS011;4589;48.690;8.952;2024-01-15T06:12:07;24.20;;;10.50;;
9106;SDS011;4589;48.690;8.952;2024-01-15T06:14:33;27.97;;;12.80;;
9106;SDS011;4589;48.690;8.952;2024-01-15T06:16:59;26.87;;;11.73;;
9106;SDS011;4589;48.690;8.952;2024-01-15T06:19:24;22.03;;;11.67;;
9106;SDS011;4589;48.690;8.952;2024-01-15T06:21:50;22.67;;;11.57;;
9106;SDS011;4589;48.690;8.952;2024-01-15T06:24:16;24.13;;;10.20;;
9106;SDS011;4589;48.690;8.952;2024-01-15T06:26:45;28.23;;;10.77;;
9106;SDS011;4589;48.690;8.952;2024-01-15T06:29:11;27.55;;;11.25;;
9106;SDS011;4589;48.690;8.952;2024-01-15T06:31:37;21.67;;;11.00;;
9106;SDS011;4589;48.690;8.952;2024-01-15T06:34:02;30.90;;;14.10;;
9106;SDS011;4589;48.690;8.952;2024-01-15T06:36:28;33.73;;;12.53;;
9106;SDS011;4589;48.690;8.952;2024-01-15T06:38:54;31.13;;;12.53;;
9106;SDS011;4589;48.690;8.952;2024-01-15T06:41:19;28.37;;;12.40;;
9106;SDS011;4589;48.690;8.952;2024-01-15T06:43:45;32.47;;;14.40;;
9106;SDS011;4589;48.690;8.952;2024-01-15T06:46:11;32.30;;;12.83;;
9106;SDS011;4589;48.690;8.952;2024-01-15T06:48:36;25.53;;;11.90;;
9106;SDS011;4589;48.690;8.952;2024-01-15T06:51:02;28.03;;;11.63;;
9106;SDS011;4589;48.690;8.952;2024-01-15T06:53:28;37.40;;;13.97;;
9106;SDS011;4589;48.690;8.952;2024-01-15T06:55:53;35.87;;;14.53;;
9106;SDS011;4589;48.690;8.952;2024-01-15T06:58:19;35.97;;;13.10;;
9106;SDS011;4589;48.690;8.952;2024-01-15T07:00:44;24.27;;;11.33;;
9106;SDS011;4589;48.690;8.952;2024-01-15T07:03:10;34.40;;;15.93;;
9106;SDS011;4589;48.690;8.952;2024-01-15T07:05:36;27.37;;;13.40;;
9106;SDS011;4589;48.690;8.952;2024-01-15T07:08:02;29.33;;;13.18;;
9106;SDS011;4589;48.690;8.952;2024-01-15T07:10:28;36.00;;;14.83;;
9106;SDS011;4589;48.690;8.952;2024-01-15T07:12:54;26.33;;;12.47;;
9106;SDS011;4589;48.690;8.952;2024-01-15T07:15:20;36.97;;;12.90;;
9106;SDS011;4589;48.690;8.952;2024-01-15T07:17:45;26.70;;;12.23;;
9106;SDS011;4589;48.690;8.952;2024-01-15T07:20:11;28.27;;;13.97;;
9106;SDS011;4589;48.690;8.952;2024-01-15T07:22:37;41.47;;;15.13;;
9106;SDS011;4589;48.690;8.952;2024-01-15T07:25:03;35.73;;;13.67;;
9106;SDS011;4589;48.690;8.952;2024-01-15T07:27:30;29.58;;;13.95;;
9106;SDS011;4589;48.690;8.952;2024-01-15T07:29:56;30.90;;;12.93;;
9106;SDS011;4589;48.690;8.952;2024-01-15T07:32:22;31.00;;;15.07;;
9106;SDS011;4589;48.690;8.952;2024-01-15T07:34:47;37.20;;;14.23;;
9106;SDS011;4589;48.690;8.952;2024-01-15T07:37:14;40.45;;;13.80;;
9106;SDS011;4589;48.690;8.952;2024-01-15T07:39:39;27.63;;;11.70;;
9106;SDS011;4589;48.690;8.952;2024-01-15T07:42:05;38.70;;;15.83;;
9106;SDS011;4589;48.690;8.952;2024-01-15T07:44:32;29.70;;;12.30;;
9106;SDS011;4589;48.690;8.952;2024-01-15T07:46:58;29.70;;;13.93;;
9106;SDS011;4589;48.690;8.952;2024-01-15T07:49:23;35.13;;;14.10;;
9106;SDS011;4589;48.690;8.952;2024-01-15T07:51:49;38.50;;;13.30;;
9106;SDS011;4589;48.690;8.952;2024-01-15T07:54:14;28.17;;;11.87;;
9106;SDS011;4589;48.690;8.952;2024-01-15T07:56:56;30.77;;;12.50;;
9106;SDS011;4589;48.690;8.952;2024-01-15T07:59:22;25.65;;;9.52;;
9106;SDS011;4589;48.690;8.952;2024-01-15T08:01:48;18.40;;;8.53;;
9106;SDS011;4589;48.690;8.952;2024-01-15T08:04:14;21.07;;;9.77;;
9106;SDS011;4589;48.690;8.952;2024-01-15T08:06:39;17.10;;;9.33;;
9106;SDS011;4589;48.690;8.952;2024-01-15T08:09:05;23.10;;;8.63;;
9106;SDS011;4589;48.690;8.952;2024-01-15T08:11:30;16.03;;;8.67;;
9106;SDS011;4589;48.690;8.952;2024-01-15T08:13:56;18.17;;;8.40;;
9106;SDS011;4589;48.690;8.952;2024-01-15T08:16:22;17.40;;;8.30;;
9106;SDS011;4589;48.690;8.952;2024-01-15T08:18:49;14.95;;;7.00;;
9106;SDS011;4589;48.690;8.952;2024-01-15T08:21:14;14.50;;;7.20;;
9106;SDS011;4589;48.690;8.952;2024-01-15T08:23:40;15.47;;;7.70;;
9106;SDS011;4589;48.690;8.952;2024-01-15T08:26:06;12.07;;;6.68;;
9106;SDS011;4589;48.690;8.952;2024-01-15T08:28:32;17.40;;;7.23;;
9106;SDS011;4589;48.690;8.952;2024-01-15T08:30:58;11.33;;;6.37;;
9106;SDS011;4589;48.690;8.952;2024-01-15T08:33:24;16.87;;;8.07;;
9106;SDS011;4589;48.690;8.952;2024-01-15T08:35:50;12.10;;;6.93;;
9106;SDS011;4589;48.690;8.952;2024-01-15T08:38:15;12.20;;;7.00;;
9106;SDS011;4589;48.690;8.952;2024-01-15T08:40:41;16.30;;;7.03;;
9106;SDS011;4589;48.690;8.952;2024-01-15T08:43:06;16.53;;;8.73;;
9106;SDS011;4589;48.690;8.952;2024-01-15T08:45:32;14.13;;;6.97;;
9106;SDS011;4589;48.690;8.952;2024-01-15T08:47:59;13.38;;;6.28;;
9106;SDS011;4589;48.690;8.952;2024-01-15T08:50:26;10.35;;;6.50;;
9106;SDS011;4589;48.690;8.952;2024-01-15T08:52:51;16.43;;;7.40;;
9106;SDS011;4589;48.690;8.952;2024-01-15T08:55:17;10.33;;;6.70;;
9106;SDS011;4589;48.690;8.952;2024-01-15T08:57:43;15.23;;;6.90;;
9106;SDS011;4589;48.690;8.952;2024-01-15T09:00:09;15.07;;;7.00;;
9106;SDS011;4589;48.690;8.952;2024-01-15T09:02:35;13.25;;;6.57;;
9106;SDS011;4589;48.690;8.952;2024-01-15T09:05:01;11.37;;;5.90;;
9106;SDS011;4589;48.690;8.952;2024-01-15T09:07:27;8.80;;;5.00;;
9106;SDS011;4589;48.690;8.952;2024-01-15T09:09:52;15.33;;;6.07;;
9106;SDS011;4589;48.690;8.952;2024-01-15T09:12:18;11.47;;;5.13;;
9106;SDS011;4589;48.690;8.952;2024-01-15T09:14:46;13.48;;;6.00;;
9106;SDS011;4589;48.690;8.952;2024-01-15T09:17:11;11.40;;;7.05;;
9106;SDS011;4589;48.690;8.952;2024-01-15T09:19:37;11.27;;;6.33;;
9106;SDS011;4589;48.690;8.952;2024-01-15T09:22:04;10.18;;;5.80;;
9106;SDS011;4589;48.690;8.952;2024-01-15T09:24:30;15.00;;;6.60;;
9106;SDS011;4589;48.690;8.952;2024-01-15T09:26:56;11.17;;;5.80;;
9106;SDS011;4589;48.690;8.952;2024-01-15T09:29:22;16.93;;;6.90;;
9106;SDS011;4589;48.690;8.952;2024-01-15T09:31:48;9.90;;;6.05;;
9106;SDS011;4589;48.690;8.952;2024-01-15T09:34:15;11.90;;;7.35;;
9106;SDS011;4589;48.690;8.952;2024-01-15T09:36:41;17.20;;;6.23;;
9106;SDS011;4589;48.690;8.952;2024-01-15T09:39:07;11.70;;;6.03;;
9106;SDS011;4589;48.690;8.952;2024-01-15T09:41:34;14.35;;;6.13;;
9106;SDS011;4589;48.690;8.952;2024-01-15T09:44:01;14.32;;;6.60;;
9106;SDS011;4589;48.690;8.952;2024-01-15T09:46:28;13.45;;;6.90;;
9106;SDS011;4589;48.690;8.952;2024-01-15T09:48:53;11.87;;;6.77;;
9106;SDS011;4589;48.690;8.952;2024-01-15T09:51:19;17.20;;;7.87;;
9106;SDS011;4589;48.690;8.952;2024-01-15T09:53:45;16.73;;;7.60;;
9106;SDS011;4589;48.690;8.952;2024-01-15T09:56:12;19.52;;;7.07;;
9106;SDS011;4589;48.690;8.952;2024-01-15T09:58:38;13.65;;;6.63;;
9106;SDS011;4589;48.690;8.952;2024-01-15T10:01:04;18.45;;;7.78;;
9106;SDS011;4589;48.690;8.952;2024-01-15T10:03:30;16.17;;;6.95;;
9106;SDS011;4589;48.690;8.952;2024-01-15T10:05:57;14.10;;;7.17;;
9106;SDS011;4589;48.690;8.952;2024-01-15T10:08:24;12.63;;;6.32;;
9106;SDS011;4589;48.690;8.952;2024-01-15T10:10:50;11.27;;;5.38;;
9106;SDS011;4589;48.690;8.952;2024-01-15T10:13:17;9.63;;;5.97;;
9106;SDS011;4589;48.690;8.952;2024-01-15T10:15:46;17.48;;;7.70;;
9106;SDS011;4589;48.690;8.952;2024-01-15T10:18:14;13.30;;;5.95;;
9106;SDS011;4589;48.690;8.952;2024-01-15T10:20:40;10.93;;;6.27;;
9106;SDS011;4589;48.690;8.952;2024-01-15T10:23:07;14.02;;;6.05;;
9106;SDS011;4589;48.690;8.952;2024-01-15T10:25:33;9.77;;;5.50;;
9106;SDS011;4589;48.690;8.952;2024-01-15T10:28:01;10.27;;;5.80;;
9106;SDS011;4589;48.690;8.952;2024-01-15T10:30:27;10.30;;;5.55;;
9106;SDS011;4589;48.690;8.952;2024-01-15T10:33:00;12.75;;;7.85;;
9106;SDS011;4589;48.690;8.952;2024-01-15T10:35:30;12.65;;;6.40;;
9106;SDS011;4589;48.690;8.952;2024-01-15T10:37:56;13.43;;;7.50;;
9106;SDS011;4589;48.690;8.952;2024-01-15T10:40:22;9.10;;;5.60;;
9106;SDS011;4589;48.690;8.952;2024-01-15T10:42:48;10.73;;;6.50;;
9106;SDS011;4589;48.690;8.952;2024-01-15T10:45:14;15.70;;;7.07;;
9106;SDS011;4589;48.690;8.952;2024-01-15T10:47:42;13.35;;;6.20;;
9106;SDS011;4589;48.690;8.952;2024-01-15T10:50:09;10.45;;;5.47;;
9106;SDS011;4589;48.690;8.952;2024-01-15T10:52:35;11.88;;;5.80;;
9106;SDS011;4589;48.690;8.952;2024-01-15T10:55:02;15.45;;;6.32;;
9106;SDS011;4589;48.690;8.952;2024-01-15T10:57:29;11.27;;;5.45;;
9106;SDS011;4589;48.690;8.952;2024-01-15T10:59:55;15.07;;;7.15;;
9106;SDS011;4589;48.690;8.952;2024-01-15T11:02:21;10.07;;;6.53;;
9106;SDS011;4589;48.690;8.952;2024-01-15T11:04:47;13.90;;;7.45;;
9106;SDS011;4589;48.690;8.952;2024-01-15T11:07:13;15.70;;;7.23;;
9106;SDS011;4589;48.690;8.952;2024-01-15T11:09:39;14.25;;;7.97;;
9106;SDS011;4589;48.690;8.952;2024-01-15T11:12:11;18.40;;;9.30;;
9106;SDS011;4589;48.690;8.952;2024-01-15T11:14:41;20.75;;;7.93;;
9106;SDS011;4589;48.690;8.952;2024-01-15T11:17:10;16.33;;;7.65;;
9106;SDS011;4589;48.690;8.952;2024-01-15T11:22:10;16.38;;;7.55;;
9106;SDS011;4589;48.690;8.952;2024-01-15T11:25:02;12.70;;;6.40;;
9106;SDS011;4589;48.690;8.952;2024-01-15T11:27:50;11.68;;;6.40;;
9106;SDS011;4589;48.690;8.952;2024-01-15T11:30:17;13.18;;;7.28;;
9106;SDS011;4589;48.690;8.952;2024-01-15T11:32:45;16.30;;;6.65;;
9106;SDS011;4589;48.690;8.952;2024-01-15T11:35:11;14.85;;;7.60;;
9106;SDS011;4589;48.690;8.952;2024-01-15T11:40:13;14.30;;;7.43;;
9106;SDS011;4589;48.690;8.952;2024-01-15T11:42:42;12.50;;;6.95;;
9106;SDS011;4589;48.690;8.952;2024-01-15T11:45:07;16.60;;;8.10;;
9106;SDS011;4589;48.690;8.952;2024-01-15T11:50:26;14.75;;;8.40;;
9106;SDS011;4589;48.690;8.952;2024-01-15T11:53:02;15.75;;;8.00;;
9106;SDS011;4589;48.690;8.952;2024-01-15T11:55:35;15.32;;;7.18;;
9106;SDS011;4589;48.690;8.952;2024-01-15T11:58:09;12.38;;;6.53;;
9106;SDS011;4589;48.690;8.952;2024-01-15T12:00:34;17.25;;;8.20;;
9106;SDS011;4589;48.690;8.952;2024-01-15T12:03:12;16.60;;;7.20;;
9106;SDS011;4589;48.690;8.952;2024-01-15T12:05:38;20.53;;;7.90;;
9106;SDS011;4589;48.690;8.952;2024-01-15T12:08:04;20.50;;;7.85;;
9106;SDS011;4589;48.690;8.952;2024-01-15T12:10:35;17.50;;;8.98;;
9106;SDS011;4589;48.690;8.952;2024-01-15T12:13:05;14.60;;;7.75;;
9106;SDS011;4589;48.690;8.952;2024-01-15T12:15:31;17.30;;;7.07;;
9106;SDS011;4589;48.690;8.952;2024-01-15T12:17:58;15.45;;;8.20;;
9106;SDS011;4589;48.690;8.952;2024-01-15T12:20:26;13.35;;;8.60;;
9106;SDS011;4589;48.690;8.952;2024-01-15T12:22:52;15.45;;;8.18;;
9106;SDS011;4589;48.690;8.952;2024-01-15T12:25:18;20.43;;;8.97;;
9106;SDS011;4589;48.690;8.952;2024-01-15T12:27:44;17.52;;;7.47;;
9106;SDS011;4589;48.690;8.952;2024-01-15T12:30:11;18.17;;;8.05;;
9106;SDS011;4589;48.690;8.952;2024-01-15T12:32:37;27.90;;;9.50;;
9106;SDS011;4589;48.690;8.952;2024-01-15T12:35:03;15.80;;;7.23;;
9106;SDS011;4589;48.690;8.952;2024-01-15T12:37:29;14.30;;;7.28;;
9106;SDS011;4589;48.690;8.952;2024-01-15T12:39:55;14.60;;;7.40;;
9106;SDS011;4589;48.690;8.952;2024-01-15T12:42:21;14.43;;;7.50;;
9106;SDS011;4589;48.690;8.952;2024-01-15T12:44:47;13.17;;;7.37;;
9106;SDS011;4589;48.690;8.952;2024-01-15T12:47:12;18.67;;;7.20;;
9106;SDS011;4589;48.690;8.952;2024-01-15T12:49:39;13.95;;;7.30;;
9106;SDS011;4589;48.690;8.952;2024-01-15T12:52:07;12.70;;;6.90;;
9106;SDS011;4589;48.690;8.952;2024-01-15T12:54:34;11.77;;;6.05;;
9106;SDS011;4589;48.690;8.952;2024-01-15T12:57:00;14.37;;;7.07;;
9106;SDS011;4589;48.690;8.952;2024-01-15T12:59:26;16.70;;;7.07;;
9106;SDS011;4589;48.690;8.952;2024-01-15T13:01:51;11.53;;;6.83;;
9106;SDS011;4589;48.690;8.952;2024-01-15T13:04:23;14.33;;;6.00;;
9106;SDS011;4589;48.690;8.952;2024-01-15T13:06:52;15.75;;;7.03;;
9106;SDS011;4589;48.690;8.952;2024-01-15T13:09:18;13.90;;;7.78;;
9106;SDS011;4589;48.690;8.952;2024-01-15T13:11:44;11.30;;;6.57;;
9106;SDS011;4589;48.690;8.952;2024-01-15T13:14:10;11.65;;;5.97;;
9106;SDS011;4589;48.690;8.952;2024-01-15T13:16:36;12.93;;;7.78;;
9106;SDS011;4589;48.690;8.952;2024-01-15T13:19:02;12.43;;;6.03;;
9106;SDS011;4589;48.690;8.952;2024-01-15T13:21:29;16.83;;;6.63;;
9106;SDS011;4589;48.690;8.952;2024-01-15T13:23:55;14.68;;;7.28;;
9106;SDS011;4589;48.690;8.952;2024-01-15T13:26:20;11.40;;;5.67;;
9106;SDS011;4589;48.690;8.952;2024-01-15T13:28:46;14.20;;;6.27;;
9106;SDS011;4589;48.690;8.952;2024-01-15T13:31:12;11.80;;;6.27;;
9106;SDS011;4589;48.690;8.952;2024-01-15T13:33:38;11.50;;;5.80;;
9106;SDS011;4589;48.690;8.952;2024-01-15T13:36:03;12.02;;;5.80;;
9106;SDS011;4589;48.690;8.952;2024-01-15T13:38:33;9.43;;;4.95;;
9106;SDS011;4589;48.690;8.952;2024-01-15T13:41:01;8.15;;;5.05;;
9106;SDS011;4589;48.690;8.952;2024-01-15T13:43:27;11.25;;;5.40;;
9106;SDS011;4589;48.690;8.952;2024-01-15T13:45:53;9.93;;;5.27;;
9106;SDS011;4589;48.690;8.952;2024-01-15T13:48:19;8.05;;;4.75;;
9106;SDS011;4589;48.690;8.952;2024-01-15T13:50:45;7.50;;;4.93;;
9106;SDS011;4589;48.690;8.952;2024-01-15T13:53:11;9.20;;;5.07;;
9106;SDS011;4589;48.690;8.952;2024-01-15T13:55:36;8.73;;;4.60;;
9106;SDS011;4589;48.690;8.952;2024-01-15T13:58:02;9.27;;;4.53;;
9106;SDS011;4589;48.690;8.952;2024-01-15T14:00:30;8.07;;;4.22;;
9106;SDS011;4589;48.690;8.952;2024-01-15T14:02:56;9.25;;;4.40;;
9106;SDS011;4589;48.690;8.952;2024-01-15T14:05:22;10.23;;;4.37;;
9106;SDS011;4589;48.690;8.952;2024-01-15T14:07:48;9.05;;;3.88;;
9106;SDS011;4589;48.690;8.952;2024-01-15T14:10:14;9.10;;;3.90;;
9106;SDS011;4589;48.690;8.952;2024-01-15T14:12:39;11.13;;;4.50;;
9106;SDS011;4589;48.690;8.952;2024-01-15T14:15:05;10.20;;;4.70;;
9106;SDS011;4589;48.690;8.952;2024-01-15T14:17:31;6.85;;;4.28;;
9106;SDS011;4589;48.690;8.952;2024-01-15T14:19:57;7.60;;;4.20;;
9106;SDS011;4589;48.690;8.952;2024-01-15T14:22:23;8.80;;;5.77;;
9106;SDS011;4589;48.690;8.952;2024-01-15T14:24:48;16.23;;;7.30;;
9106;SDS011;4589;48.690;8.952;2024-01-15T14:27:14;10.73;;;6.70;;
9106;SDS011;4589;48.690;8.952;2024-01-15T14:29:40;10.87;;;5.83;;
9106;SDS011;4589;48.690;8.952;2024-01-15T14:32:06;8.23;;;5.37;;
9106;SDS011;4589;48.690;8.952;2024-01-15T14:34:31;17.87;;;8.43;;
9106;SDS011;4589;48.690;8.952;2024-01-15T14:36:57;7.80;;;5.33;;
9106;SDS011;4589;48.690;8.952;2024-01-15T14:39:23;8.70;;;5.33;;
9106;SDS011;4589;48.690;8.952;2024-01-15T14:41:49;5.85;;;4.30;;
9106;SDS011;4589;48.690;8.952;2024-01-15T14:44:14;7.20;;;4.83;;
9106;SDS011;4589;48.690;8.952;2024-01-15T14:46:40;7.57;;;5.10;;
9106;SDS011;4589;48.690;8.952;2024-01-15T14:49:05;10.67;;;4.47;;
9106;SDS011;4589;48.690;8.952;2024-01-15T14:51:31;7.60;;;4.20;;
9106;SDS011;4589;48.690;8.952;2024-01-15T14:53:57;7.77;;;5.33;;
9106;SDS011;4589;48.690;8.952;2024-01-15T14:56:23;13.03;;;6.43;;
9106;SDS011;4589;48.690;8.952;2024-01-15T14:58:49;21.70;;;10.50;;